sensor_id;sensor_type;location;lat;lon;timestamp;pressure;altitude;pressure_sealevel;temperature;humidity
68230;BME280;55048;52.220;5.160;2022-11-15T00:01:41;100695.81;;;7.60;83.73
68230;BME280;55048;52.220;5.160;2022-11-15T00:04:25;100734.44;;;7.86;83.30
68230;BME280;55048;52.220;5.160;2022-11-15T00:07:09;100734.94;;;7.76;83.41
68230;BME280;55048;52.220;5.160;2022-11-15T00:09:53;100677.00;;;7.50;84.45
68230;BME280;55048;52.220;5.160;2022-11-15T00:12:37;100686.06;;;7.60;84.64
68230;BME280;55048;52.220;5.160;2022-11-15T00:15:21;100725.97;;;7.96;83.96
68230;BME280;55048;52.220;5.160;2022-11-15T00:18:06;100707.59;;;7.82;83.72
68230;BME280;55048;52.220;5.160;2022-11-15T00:20:55;100705.97;;;7.81;84.48
68230;BME280;55048;52.220;5.160;2022-11-15T00:23:40;100695.00;;;7.78;84.29
68230;BME280;55048;52.220;5.160;2022-11-15T00:26:24;100679.78;;;7.73;84.43
68230;BME280;55048;52.220;5.160;2022-11-15T00:29:07;100688.25;;;7.82;84.99
68230;BME280;55048;52.220;5.160;2022-11-15T00:31:52;100686.13;;;7.72;84.39
68230;BME280;55048;52.220;5.160;2022-11-15T00:34:36;100647.69;;;7.51;84.86
68230;BME280;55048;52.220;5.160;2022-11-15T00:37:19;100704.75;;;7.84;85.33
68230;BME280;55048;52.220;5.160;2022-11-15T00:40:04;100714.81;;;7.93;85.16
68230;BME280;55048;52.220;5.160;2022-11-15T00:42:48;100652.00;;;7.64;85.37
68230;BME280;55048;52.220;5.160;2022-11-15T00:45:32;100692.44;;;7.89;85.82
68230;BME280;55048;52.220;5.160;2022-11-15T00:48:16;100639.44;;;7.59;86.40
68230;BME280;55048;52.220;5.160;2022-11-15T00:50:59;100673.41;;;7.81;85.33
68230;BME280;55048;52.220;5.160;2022-11-15T00:53:43;100581.16;;;7.29;85.32
68230;BME280;55048;52.220;5.160;2022-11-15T00:56:27;100661.56;;;7.83;84.87
68230;BME280;55048;52.220;5.160;2022-11-15T00:59:11;100652.66;;;7.78;85.44
68230;BME280;55048;52.220;5.160;2022-11-15T01:01:55;100697.44;;;8.16;85.00
68230;BME280;55048;52.220;5.160;2022-11-15T01:04:39;100677.41;;;8.02;84.99
68230;BME280;55048;52.220;5.160;2022-11-15T01:07:23;100665.81;;;8.03;85.51
68230;BME280;55048;52.220;5.160;2022-11-15T01:10:08;100638.97;;;7.81;86.15
68230;BME280;55048;52.220;5.160;2022-11-15T01:12:52;100662.94;;;8.04;85.33
68230;BME280;55048;52.220;5.160;2022-11-15T01:15:39;100656.69;;;7.99;85.80
68230;BME280;55048;52.220;5.160;2022-11-15T01:18:23;100693.06;;;8.22;86.76
68230;BME280;55048;52.220;5.160;2022-11-15T01:21:13;100573.44;;;7.46;86.21
68230;BME280;55048;52.220;5.160;2022-11-15T01:23:57;100662.78;;;7.99;87.77
68230;BME280;55048;52.220;5.160;2022-11-15T01:26:41;100674.69;;;8.08;86.59
68230;BME280;55048;52.220;5.160;2022-11-15T01:29:26;100693.88;;;8.22;86.68
68230;BME280;55048;52.220;5.160;2022-11-15T01:32:09;100621.84;;;7.83;86.58
68230;BME280;55048;52.220;5.160;2022-11-15T01:34:53;100632.72;;;7.93;87.22
68230;BME280;55048;52.220;5.160;2022-11-15T01:37:37;100647.59;;;8.06;87.45
68230;BME280;55048;52.220;5.160;2022-11-15T01:40:21;100659.88;;;8.19;87.23
68230;BME280;55048;52.220;5.160;2022-11-15T01:43:22;100649.81;;;8.09;88.08
68230;BME280;55048;52.220;5.160;2022-11-15T01:46:30;100631.69;;;7.95;89.27
68230;BME280;55048;52.220;5.160;2022-11-15T01:49:18;100616.97;;;7.99;88.79
68230;BME280;55048;52.220;5.160;2022-11-15T01:52:07;100602.31;;;7.96;88.97
68230;BME280;55048;52.220;5.160;2022-11-15T01:57:51;100635.47;;;8.29;87.89
68230;BME280;55048;52.220;5.160;2022-11-15T02:00:37;100647.47;;;8.31;89.72
68230;BME280;55048;52.220;5.160;2022-11-15T02:03:25;100643.00;;;8.32;89.99
68230;BME280;55048;52.220;5.160;2022-11-15T02:06:10;100610.00;;;8.16;89.16
68230;BME280;55048;52.220;5.160;2022-11-15T02:08:56;100653.31;;;8.52;88.08
68230;BME280;55048;52.220;5.160;2022-11-15T02:11:41;100589.28;;;8.25;88.83
68230;BME280;55048;52.220;5.160;2022-11-15T02:14:27;100630.94;;;8.48;88.41
68230;BME280;55048;52.220;5.160;2022-11-15T02:17:28;100636.66;;;8.63;88.47
68230;BME280;55048;52.220;5.160;2022-11-15T02:32:35;100567.25;;;8.54;88.91
68230;BME280;55048;52.220;5.160;2022-11-15T02:38:18;100595.84;;;8.76;90.69
68230;BME280;55048;52.220;5.160;2022-11-15T02:41:10;100568.19;;;8.60;90.60
68230;BME280;55048;52.220;5.160;2022-11-15T02:49:59;100566.78;;;8.81;nan
68230;BME280;55048;52.220;5.160;2022-11-15T02:52:45;100585.34;;;9.04;90.33
68230;BME280;55048;52.220;5.160;2022-11-15T02:55:43;100579.13;;;8.99;90.05
68230;BME280;55048;52.220;5.160;2022-11-15T03:04:56;100548.34;;;8.98;90.94
68230;BME280;55048;52.220;5.160;2022-11-15T03:07:53;100543.72;;;9.05;90.19
68230;BME280;55048;52.220;5.160;2022-11-15T03:16:39;100574.13;;;9.26;89.90
68230;BME280;55048;52.220;5.160;2022-11-15T03:19:28;100583.09;;;9.36;90.42
68230;BME280;55048;52.220;5.160;2022-11-15T03:22:17;100549.94;;;9.10;90.60
68230;BME280;55048;52.220;5.160;2022-11-15T03:25:06;100582.53;;;9.34;90.98
68230;BME280;55048;52.220;5.160;2022-11-15T03:27:54;100546.91;;;9.18;91.05
68230;BME280;55048;52.220;5.160;2022-11-15T03:30:39;100575.13;;;9.48;90.83
68230;BME280;55048;52.220;5.160;2022-11-15T03:33:24;100538.03;;;9.25;90.36
68230;BME280;55048;52.220;5.160;2022-11-15T03:36:10;100554.72;;;9.37;90.08
68230;BME280;55048;52.220;5.160;2022-11-15T03:38:57;100555.19;;;9.34;91.71
68230;BME280;55048;52.220;5.160;2022-11-15T03:42:15;100547.25;;;9.34;91.61
68230;BME280;55048;52.220;5.160;2022-11-15T03:45:12;100565.88;;;9.51;90.58
68230;BME280;55048;52.220;5.160;2022-11-15T03:48:12;100553.44;;;9.39;90.54
68230;BME280;55048;52.220;5.160;2022-11-15T03:50:58;100553.66;;;9.50;91.15
68230;BME280;55048;52.220;5.160;2022-11-15T03:53:42;100575.75;;;9.67;92.48
68230;BME280;55048;52.220;5.160;2022-11-15T03:56:26;100542.22;;;9.49;92.13
68230;BME280;55048;52.220;5.160;2022-11-15T03:59:10;100539.19;;;9.57;92.61
68230;BME280;55048;52.220;5.160;2022-11-15T04:01:53;100560.81;;;9.78;92.48
68230;BME280;55048;52.220;5.160;2022-11-15T04:04:38;100522.56;;;9.62;91.59
68230;BME280;55048;52.220;5.160;2022-11-15T04:07:22;100544.31;;;9.76;93.86
68230;BME280;55048;52.220;5.160;2022-11-15T04:10:06;100525.31;;;9.67;91.82
68230;BME280;55048;52.220;5.160;2022-11-15T04:12:50;100525.94;;;9.74;92.06
68230;BME280;55048;52.220;5.160;2022-11-15T04:15:34;100537.41;;;9.91;92.12
68230;BME280;55048;52.220;5.160;2022-11-15T04:18:19;100520.50;;;9.81;93.09
68230;BME280;55048;52.220;5.160;2022-11-15T04:21:03;100523.81;;;9.88;91.94
68230;BME280;55048;52.220;5.160;2022-11-15T04:24:06;100484.69;;;9.66;92.39
68230;BME280;55048;52.220;5.160;2022-11-15T04:26:55;100562.59;;;10.17;92.41
68230;BME280;55048;52.220;5.160;2022-11-15T04:29:39;100512.72;;;9.91;93.39
68230;BME280;55048;52.220;5.160;2022-11-15T04:32:23;100524.56;;;10.00;92.49
68230;BME280;55048;52.220;5.160;2022-11-15T04:35:07;100553.56;;;10.18;93.27
68230;BME280;55048;52.220;5.160;2022-11-15T04:37:52;100531.81;;;10.05;93.23
68230;BME280;55048;52.220;5.160;2022-11-15T04:40:37;100507.22;;;9.97;93.17
68230;BME280;55048;52.220;5.160;2022-11-15T04:43:21;100507.00;;;9.99;93.26
68230;BME280;55048;52.220;5.160;2022-11-15T04:46:05;100528.03;;;10.17;92.92
68230;BME280;55048;52.220;5.160;2022-11-15T04:48:50;100545.88;;;10.34;93.41
68230;BME280;55048;52.220;5.160;2022-11-15T04:51:33;100518.75;;;10.20;93.33
68230;BME280;55048;52.220;5.160;2022-11-15T04:54:17;100490.56;;;10.02;93.37
68230;BME280;55048;52.220;5.160;2022-11-15T04:57:01;100508.63;;;10.17;93.31
68230;BME280;55048;52.220;5.160;2022-11-15T04:59:45;100517.97;;;10.19;93.15
68230;BME280;55048;52.220;5.160;2022-11-15T05:02:29;100513.03;;;10.11;92.49
68230;BME280;55048;52.220;5.160;2022-11-15T05:05:33;100526.41;;;10.16;92.90
68230;BME280;55048;52.220;5.160;2022-11-15T05:08:17;100522.66;;;10.12;92.75
68230;BME280;55048;52.220;5.160;2022-11-15T05:11:01;100516.63;;;10.17;92.91
68230;BME280;55048;52.220;5.160;2022-11-15T05:13:45;100524.59;;;10.17;92.69
68230;BME280;55048;52.220;5.160;2022-11-15T05:16:29;100542.66;;;10.32;92.64
68230;BME280;55048;52.220;5.160;2022-11-15T05:19:13;100551.84;;;10.41;93.32
68230;BME280;55048;52.220;5.160;2022-11-15T05:21:57;100531.94;;;10.27;93.01
68230;BME280;55048;52.220;5.160;2022-11-15T05:24:41;100538.94;;;10.33;92.66
68230;BME280;55048;52.220;5.160;2022-11-15T05:27:25;100572.63;;;10.61;93.11
68230;BME280;55048;52.220;5.160;2022-11-15T05:30:10;100554.66;;;10.51;92.89
68230;BME280;55048;52.220;5.160;2022-11-15T05:32:54;100497.84;;;10.23;92.31
68230;BME280;55048;52.220;5.160;2022-11-15T05:35:42;100531.19;;;10.48;92.30
68230;BME280;55048;52.220;5.160;2022-11-15T05:38:29;100521.00;;;10.40;92.73
68230;BME280;55048;52.220;5.160;2022-11-15T05:41:14;100530.06;;;10.44;93.92
68230;BME280;55048;52.220;5.160;2022-11-15T05:44:00;100520.75;;;10.41;93.05
68230;BME280;55048;52.220;5.160;2022-11-15T05:46:45;100564.56;;;10.72;93.33
68230;BME280;55048;52.220;5.160;2022-11-15T05:49:31;100576.16;;;10.83;93.07
68230;BME280;55048;52.220;5.160;2022-11-15T05:52:22;100571.81;;;10.77;93.32
68230;BME280;55048;52.220;5.160;2022-11-15T05:55:08;100527.88;;;10.58;93.95
68230;BME280;55048;52.220;5.160;2022-11-15T05:57:53;100486.09;;;10.36;93.18
68230;BME280;55048;52.220;5.160;2022-11-15T06:00:36;100560.25;;;10.88;93.03
68230;BME280;55048;52.220;5.160;2022-11-15T06:03:20;100514.91;;;10.61;93.09
68230;BME280;55048;52.220;5.160;2022-11-15T06:06:04;100541.91;;;10.70;93.28
68230;BME280;55048;52.220;5.160;2022-11-15T06:08:49;100562.44;;;10.91;93.31
68230;BME280;55048;52.220;5.160;2022-11-15T06:11:33;100579.28;;;10.97;93.63
68230;BME280;55048;52.220;5.160;2022-11-15T06:14:17;100559.44;;;10.88;93.62
68230;BME280;55048;52.220;5.160;2022-11-15T06:17:00;100543.34;;;10.78;94.00
68230;BME280;55048;52.220;5.160;2022-11-15T06:19:45;100593.56;;;11.13;93.36
68230;BME280;55048;52.220;5.160;2022-11-15T06:22:29;100553.06;;;10.89;94.16
68230;BME280;55048;52.220;5.160;2022-11-15T06:25:13;100570.78;;;11.00;93.30
68230;BME280;55048;52.220;5.160;2022-11-15T06:27:58;100522.63;;;10.80;92.91
68230;BME280;55048;52.220;5.160;2022-11-15T06:30:42;100564.50;;;10.89;93.81
68230;BME280;55048;52.220;5.160;2022-11-15T06:33:26;100571.97;;;11.09;94.40
68230;BME280;55048;52.220;5.160;2022-11-15T06:36:12;100582.94;;;11.13;93.78
68230;BME280;55048;52.220;5.160;2022-11-15T06:39:04;100492.75;;;10.56;93.58
68230;BME280;55048;52.220;5.160;2022-11-15T06:41:48;100530.38;;;10.64;93.80
68230;BME280;55048;52.220;5.160;2022-11-15T06:44:33;100612.91;;;11.25;93.63
68230;BME280;55048;52.220;5.160;2022-11-15T06:47:17;100581.59;;;11.10;93.30
68230;BME280;55048;52.220;5.160;2022-11-15T06:50:01;100574.56;;;11.04;93.47
68230;BME280;55048;52.220;5.160;2022-11-15T06:52:44;100624.91;;;11.28;93.62
68230;BME280;55048;52.220;5.160;2022-11-15T06:55:29;100569.25;;;11.04;92.88
68230;BME280;55048;52.220;5.160;2022-11-15T06:58:13;100629.28;;;11.34;92.86
68230;BME280;55048;52.220;5.160;2022-11-15T07:01:03;100623.94;;;11.34;92.65
68230;BME280;55048;52.220;5.160;2022-11-15T07:03:48;100619.38;;;11.29;92.98
68230;BME280;55048;52.220;5.160;2022-11-15T07:06:32;100531.06;;;10.77;92.97
68230;BME280;55048;52.220;5.160;2022-11-15T07:09:15;100578.59;;;11.07;93.00
68230;BME280;55048;52.220;5.160;2022-11-15T07:11:59;100591.09;;;11.06;93.14
68230;BME280;55048;52.220;5.160;2022-11-15T07:14:43;100592.53;;;11.14;93.36
68230;BME280;55048;52.220;5.160;2022-11-15T07:17:27;100597.38;;;11.17;93.36
68230;BME280;55048;52.220;5.160;2022-11-15T07:20:12;100560.88;;;10.95;93.02
68230;BME280;55048;52.220;5.160;2022-11-15T07:23:01;100619.84;;;11.26;92.88
68230;BME280;55048;52.220;5.160;2022-11-15T07:25:45;100620.09;;;11.24;93.22
68230;BME280;55048;52.220;5.160;2022-11-15T07:28:29;100619.84;;;11.26;93.06
68230;BME280;55048;52.220;5.160;2022-11-15T07:31:13;100559.69;;;10.86;93.27
68230;BME280;55048;52.220;5.160;2022-11-15T07:33:57;100582.72;;;10.97;93.13
68230;BME280;55048;52.220;5.160;2022-11-15T07:36:41;100577.94;;;10.99;92.80
68230;BME280;55048;52.220;5.160;2022-11-15T07:39:25;100600.44;;;11.09;92.86
68230;BME280;55048;52.220;5.160;2022-11-15T07:42:09;100527.81;;;10.69;92.39
68230;BME280;55048;52.220;5.160;2022-11-15T07:45:12;100594.94;;;11.15;92.70
68230;BME280;55048;52.220;5.160;2022-11-15T07:47:56;100559.03;;;10.96;92.80
68230;BME280;55048;52.220;5.160;2022-11-15T07:50:41;100613.13;;;11.23;93.31
68230;BME280;55048;52.220;5.160;2022-11-15T07:53:26;100626.34;;;11.35;92.49
68230;BME280;55048;52.220;5.160;2022-11-15T07:56:10;100594.16;;;11.15;92.39
68230;BME280;55048;52.220;5.160;2022-11-15T07:58:54;100586.16;;;11.15;92.59
68230;BME280;55048;52.220;5.160;2022-11-15T08:01:39;100583.50;;;11.15;92.29
68230;BME280;55048;52.220;5.160;2022-11-15T08:04:23;100568.75;;;11.07;92.50
68230;BME280;55048;52.220;5.160;2022-11-15T08:07:07;100599.28;;;11.21;92.30
68230;BME280;55048;52.220;5.160;2022-11-15T08:09:51;100545.09;;;10.89;92.41
68230;BME280;55048;52.220;5.160;2022-11-15T08:12:35;100618.91;;;11.37;92.39
68230;BME280;55048;52.220;5.160;2022-11-15T08:15:19;100531.16;;;10.82;92.23
68230;BME280;55048;52.220;5.160;2022-11-15T08:18:06;100584.91;;;11.22;92.20
68230;BME280;55048;52.220;5.160;2022-11-15T08:20:50;100515.50;;;10.85;91.86
68230;BME280;55048;52.220;5.160;2022-11-15T08:23:33;100588.28;;;11.35;92.06
68230;BME280;55048;52.220;5.160;2022-11-15T08:26:17;100583.75;;;11.35;91.90
68230;BME280;55048;52.220;5.160;2022-11-15T08:29:01;100578.69;;;11.34;91.79
68230;BME280;55048;52.220;5.160;2022-11-15T08:31:45;100570.69;;;11.34;91.87
68230;BME280;55048;52.220;5.160;2022-11-15T08:34:29;100581.22;;;11.45;92.10
68230;BME280;55048;52.220;5.160;2022-11-15T08:37:13;100561.91;;;11.33;91.87
68230;BME280;55048;52.220;5.160;2022-11-15T08:39:57;100550.44;;;11.33;92.07
68230;BME280;55048;52.220;5.160;2022-11-15T08:42:41;100560.09;;;11.39;92.07
68230;BME280;55048;52.220;5.160;2022-11-15T08:45:25;100527.22;;;11.28;91.77
68230;BME280;55048;52.220;5.160;2022-11-15T08:48:09;100558.09;;;11.51;91.93
68230;BME280;55048;52.220;5.160;2022-11-15T08:50:54;100566.72;;;11.58;91.66
68230;BME280;55048;52.220;5.160;2022-11-15T08:53:38;100525.44;;;11.34;91.36
68230;BME280;55048;52.220;5.160;2022-11-15T08:56:22;100554.91;;;11.49;91.31
68230;BME280;55048;52.220;5.160;2022-11-15T08:59:06;100554.09;;;11.48;91.41
68230;BME280;55048;52.220;5.160;2022-11-15T09:01:50;100556.81;;;11.54;91.35
68230;BME280;55048;52.220;5.160;2022-11-15T09:04:34;100523.94;;;11.43;91.04
68230;BME280;55048;52.220;5.160;2022-11-15T09:07:18;100570.34;;;11.74;91.20
68230;BME280;55048;52.220;5.160;2022-11-15T09:10:02;100521.50;;;11.41;90.92
68230;BME280;55048;52.220;5.160;2022-11-15T09:12:46;100547.59;;;11.61;90.69
68230;BME280;55048;52.220;5.160;2022-11-15T09:15:32;100580.09;;;11.85;90.40
68230;BME280;55048;52.220;5.160;2022-11-15T09:18:16;100536.38;;;11.59;90.31
68230;BME280;55048;52.220;5.160;2022-11-15T09:21:00;100523.66;;;11.66;89.98
68230;BME280;55048;52.220;5.160;2022-11-15T09:23:46;100522.56;;;11.62;89.71
68230;BME280;55048;52.220;5.160;2022-11-15T09:26:30;100553.69;;;11.84;89.74
68230;BME280;55048;52.220;5.160;2022-11-15T09:29:14;100550.00;;;11.85;89.63
68230;BME280;55048;52.220;5.160;2022-11-15T09:31:58;100526.91;;;11.73;89.48
68230;BME280;55048;52.220;5.160;2022-11-15T09:34:41;100522.44;;;11.79;89.28
68230;BME280;55048;52.220;5.160;2022-11-15T09:37:26;100523.00;;;11.81;88.81
68230;BME280;55048;52.220;5.160;2022-11-15T09:40:11;100558.25;;;12.15;88.92
68230;BME280;55048;52.220;5.160;2022-11-15T09:43:32;100555.66;;;12.25;88.28
68230;BME280;55048;52.220;5.160;2022-11-15T09:46:28;100551.41;;;12.24;87.66
68230;BME280;55048;52.220;5.160;2022-11-15T09:49:17;100555.97;;;12.29;87.61
68230;BME280;55048;52.220;5.160;2022-11-15T09:52:02;100525.38;;;12.05;86.92
68230;BME280;55048;52.220;5.160;2022-11-15T09:54:34;100563.25;;;12.39;86.73
68230;BME280;55048;52.220;5.160;2022-11-15T09:59:47;100548.53;;;12.31;85.77
68230;BME280;55048;52.220;5.160;2022-11-15T10:05:20;100518.88;;;12.22;85.21
68230;BME280;55048;52.220;5.160;2022-11-15T10:10:42;100550.47;;;12.41;84.40
68230;BME280;55048;52.220;5.160;2022-11-15T10:13:31;100538.75;;;12.10;84.07
68230;BME280;55048;52.220;5.160;2022-11-15T10:16:16;100493.38;;;11.99;84.07
68230;BME280;55048;52.220;5.160;2022-11-15T10:19:03;100518.91;;;12.28;83.16
68230;BME280;55048;52.220;5.160;2022-11-15T10:24:45;100485.41;;;12.05;82.60
68230;BME280;55048;52.220;5.160;2022-11-15T10:27:13;100534.66;;;12.29;82.54
68230;BME280;55048;52.220;5.160;2022-11-15T10:29:47;100532.28;;;12.33;82.22
68230;BME280;55048;52.220;5.160;2022-11-15T10:32:14;100528.59;;;12.39;81.75
68230;BME280;55048;52.220;5.160;2022-11-15T10:34:40;100493.00;;;12.23;81.91
68230;BME280;55048;52.220;5.160;2022-11-15T10:37:05;100493.81;;;12.23;81.06
68230;BME280;55048;52.220;5.160;2022-11-15T10:39:30;100473.59;;;12.28;81.20
68230;BME280;55048;52.220;5.160;2022-11-15T10:41:56;100374.50;;;11.66;81.27
68230;BME280;55048;52.220;5.160;2022-11-15T10:44:25;100405.88;;;11.91;80.56
68230;BME280;55048;52.220;5.160;2022-11-15T10:49:30;100460.84;;;12.40;80.28
68230;BME280;55048;52.220;5.160;2022-11-15T10:54:44;100404.44;;;12.16;79.53
68230;BME280;55048;52.220;5.160;2022-11-15T10:57:14;100385.72;;;12.06;79.52
68230;BME280;55048;52.220;5.160;2022-11-15T10:59:46;100484.78;;;12.72;79.38
68230;BME280;55048;52.220;5.160;2022-11-15T11:02:34;100477.56;;;12.72;79.21
68230;BME280;55048;52.220;5.160;2022-11-15T11:05:02;100473.13;;;12.88;79.15
68230;BME280;55048;52.220;5.160;2022-11-15T11:07:30;100468.75;;;12.72;78.65
68230;BME280;55048;52.220;5.160;2022-11-15T11:09:58;100431.84;;;12.48;78.43
68230;BME280;55048;52.220;5.160;2022-11-15T11:12:30;100405.91;;;12.39;77.88
68230;BME280;55048;52.220;5.160;2022-11-15T11:14:57;100442.84;;;12.62;77.36
68230;BME280;55048;52.220;5.160;2022-11-15T11:20:10;100453.06;;;12.81;76.91
68230;BME280;55048;52.220;5.160;2022-11-15T11:22:47;100447.97;;;12.74;76.67
68230;BME280;55048;52.220;5.160;2022-11-15T11:28:01;100430.59;;;12.66;76.59
68230;BME280;55048;52.220;5.160;2022-11-15T11:30:54;100455.25;;;12.89;76.75
68230;BME280;55048;52.220;5.160;2022-11-15T11:33:29;100457.66;;;12.90;76.77
68230;BME280;55048;52.220;5.160;2022-11-15T11:38:55;100431.72;;;12.81;75.86
68230;BME280;55048;52.220;5.160;2022-11-15T11:41:46;100391.66;;;12.65;75.00
68230;BME280;55048;52.220;5.160;2022-11-15T11:44:27;100439.78;;;12.96;74.69
68230;BME280;55048;52.220;5.160;2022-11-15T11:49:39;100411.50;;;12.95;74.20
68230;BME280;55048;52.220;5.160;2022-11-15T11:54:58;100428.91;;;13.18;73.76
68230;BME280;55048;52.220;5.160;2022-11-15T11:57:32;100399.22;;;13.04;73.52
68230;BME280;55048;52.220;5.160;2022-11-15T12:00:23;100387.22;;;12.96;73.31
68230;BME280;55048;52.220;5.160;2022-11-15T12:05:38;100333.28;;;12.89;72.66
68230;BME280;55048;52.220;5.160;2022-11-15T12:10:40;100341.28;;;12.99;72.85
68230;BME280;55048;52.220;5.160;2022-11-15T12:13:16;100394.78;;;13.25;72.97
68230;BME280;55048;52.220;5.160;2022-11-15T12:15:50;100381.16;;;13.32;73.05
68230;BME280;55048;52.220;5.160;2022-11-15T12:18:17;100376.38;;;13.34;72.41
68230;BME280;55048;52.220;5.160;2022-11-15T12:23:25;100363.03;;;13.34;71.87
68230;BME280;55048;52.220;5.160;2022-11-15T12:26:27;100354.22;;;13.38;71.32
68230;BME280;55048;52.220;5.160;2022-11-15T12:29:01;100309.03;;;13.06;70.61
68230;BME280;55048;52.220;5.160;2022-11-15T12:34:03;100307.41;;;13.10;70.42
68230;BME280;55048;52.220;5.160;2022-11-15T12:36:41;100259.63;;;12.78;70.33
68230;BME280;55048;52.220;5.160;2022-11-15T12:39:09;100326.44;;;13.29;70.20
68230;BME280;55048;52.220;5.160;2022-11-15T12:41:37;100332.00;;;13.43;70.36
68230;BME280;55048;52.220;5.160;2022-11-15T12:44:04;100281.25;;;13.17;70.15
68230;BME280;55048;52.220;5.160;2022-11-15T12:49:44;100319.22;;;13.40;69.51
68230;BME280;55048;52.220;5.160;2022-11-15T12:59:54;100280.22;;;13.49;68.64
68230;BME280;55048;52.220;5.160;2022-11-15T13:04:49;100221.19;;;13.20;67.93
68230;BME280;55048;52.220;5.160;2022-11-15T13:12:57;100298.34;;;13.72;67.29
68230;BME280;55048;52.220;5.160;2022-11-15T13:18:35;100250.03;;;13.43;66.25
68230;BME280;55048;52.220;5.160;2022-11-15T13:21:02;100268.38;;;13.75;66.52
68230;BME280;55048;52.220;5.160;2022-11-15T13:23:52;100187.81;;;13.22;66.50
68230;BME280;55048;52.220;5.160;2022-11-15T13:26:17;100263.63;;;13.67;66.04
68230;BME280;55048;52.220;5.160;2022-11-15T13:28:48;100196.34;;;13.19;66.66
68230;BME280;55048;52.220;5.160;2022-11-15T13:31:37;100248.13;;;13.64;66.64
68230;BME280;55048;52.220;5.160;2022-11-15T13:34:29;100148.59;;;12.92;66.27
68230;BME280;55048;52.220;5.160;2022-11-15T13:36:58;100184.34;;;13.17;66.78
68230;BME280;55048;52.220;5.160;2022-11-15T13:41:50;100240.41;;;13.52;66.89
68230;BME280;55048;52.220;5.160;2022-11-15T13:44:22;100182.22;;;13.03;66.95
68230;BME280;55048;52.220;5.160;2022-11-15T13:46:47;100187.28;;;13.05;67.01
68230;BME280;55048;52.220;5.160;2022-11-15T13:49:13;100174.72;;;13.00;67.04
68230;BME280;55048;52.220;5.160;2022-11-15T13:51:46;100205.16;;;13.20;67.07
68230;BME280;55048;52.220;5.160;2022-11-15T13:56:41;100221.19;;;13.40;67.40
68230;BME280;55048;52.220;5.160;2022-11-15T13:59:10;100114.44;;;12.59;67.12
68230;BME280;55048;52.220;5.160;2022-11-15T14:01:36;100222.81;;;13.31;67.65
68230;BME280;55048;52.220;5.160;2022-11-15T14:04:03;100216.66;;;13.25;67.40
68230;BME280;55048;52.220;5.160;2022-11-15T14:06:29;100210.22;;;13.21;67.61
68230;BME280;55048;52.220;5.160;2022-11-15T14:09:00;100200.63;;;13.20;67.69
68230;BME280;55048;52.220;5.160;2022-11-15T14:11:26;100131.00;;;12.76;67.75
68230;BME280;55048;52.220;5.160;2022-11-15T14:14:19;100203.84;;;13.12;68.20
68230;BME280;55048;52.220;5.160;2022-11-15T14:16:48;100194.75;;;13.13;68.15
68230;BME280;55048;52.220;5.160;2022-11-15T14:22:07;100188.34;;;13.04;68.37
68230;BME280;55048;52.220;5.160;2022-11-15T14:24:32;100139.78;;;12.76;68.32
68230;BME280;55048;52.220;5.160;2022-11-15T14:27:16;100183.56;;;13.01;68.61
68230;BME280;55048;52.220;5.160;2022-11-15T14:29:41;100098.19;;;12.50;68.71
68230;BME280;55048;52.220;5.160;2022-11-15T14:32:21;100172.88;;;12.96;69.12
68230;BME280;55048;52.220;5.160;2022-11-15T14:34:49;100071.00;;;12.33;68.96
68230;BME280;55048;52.220;5.160;2022-11-15T14:37:32;100163.81;;;12.97;69.13
68230;BME280;55048;52.220;5.160;2022-11-15T14:40:02;100162.19;;;12.91;69.00
68230;BME280;55048;52.220;5.160;2022-11-15T14:42:28;100153.66;;;12.94;69.03
68230;BME280;55048;52.220;5.160;2022-11-15T14:44:53;100132.31;;;12.84;69.08
68230;BME280;55048;52.220;5.160;2022-11-15T14:47:19;100124.56;;;12.82;68.96
68230;BME280;55048;52.220;5.160;2022-11-15T14:49:44;100138.19;;;12.91;68.61
68230;BME280;55048;52.220;5.160;2022-11-15T14:52:23;100132.84;;;12.91;68.74
68230;BME280;55048;52.220;5.160;2022-11-15T14:54:49;100083.50;;;12.52;68.77
68230;BME280;55048;52.220;5.160;2022-11-15T14:57:14;100097.13;;;12.66;68.82
68230;BME280;55048;52.220;5.160;2022-11-15T14:59:40;100054.72;;;12.39;68.51
68230;BME280;55048;52.220;5.160;2022-11-15T15:02:34;100086.44;;;12.66;68.70
68230;BME280;55048;52.220;5.160;2022-11-15T15:05:00;99976.59;;;11.93;68.41
68230;BME280;55048;52.220;5.160;2022-11-15T15:07:29;100080.31;;;12.66;68.47
68230;BME280;55048;52.220;5.160;2022-11-15T15:09:54;100085.38;;;12.67;68.29
68230;BME280;55048;52.220;5.160;2022-11-15T15:12:21;100062.44;;;12.56;68.01
68230;BME280;55048;52.220;5.160;2022-11-15T15:14:48;100025.38;;;12.39;67.99
68230;BME280;55048;52.220;5.160;2022-11-15T15:17:15;100092.31;;;12.84;67.93
68230;BME280;55048;52.220;5.160;2022-11-15T15:19:41;99935.06;;;11.87;68.01
68230;BME280;55048;52.220;5.160;2022-11-15T15:22:17;100094.69;;;12.80;67.76
68230;BME280;55048;52.220;5.160;2022-11-15T15:24:44;100041.63;;;12.58;67.80
68230;BME280;55048;52.220;5.160;2022-11-15T15:27:10;99964.38;;;12.17;67.86
68230;BME280;55048;52.220;5.160;2022-11-15T15:29:36;100010.97;;;12.50;67.79
68230;BME280;55048;52.220;5.160;2022-11-15T15:32:02;100068.03;;;12.75;67.47
68230;BME280;55048;52.220;5.160;2022-11-15T15:34:27;100051.50;;;12.78;67.67
68230;BME280;55048;52.220;5.160;2022-11-15T15:37:30;100025.91;;;12.62;67.48
68230;BME280;55048;52.220;5.160;2022-11-15T15:39:56;99945.44;;;12.14;67.33
68230;BME280;55048;52.220;5.160;2022-11-15T15:42:22;100015.75;;;12.54;67.12
68230;BME280;55048;52.220;5.160;2022-11-15T15:44:48;99978.19;;;12.30;67.09
68230;BME280;55048;52.220;5.160;2022-11-15T15:47:16;100046.66;;;12.80;67.00
68230;BME280;55048;52.220;5.160;2022-11-15T15:49:43;100046.38;;;12.82;66.73
68230;BME280;55048;52.220;5.160;2022-11-15T15:52:09;100008.84;;;12.47;66.85